大分空港の過去48時間の天気

大分空港 (Oita)

現在時刻: 9/19 07:11 JST (9/18 22:11 UTC) 以下の時間は現地時間です。

過去48時間のMETAR気象情報
時間 風向 風速(m/s) 視程 気温(℃) 湿度(%) 気圧(hPa) 天気現象
19 07:00 北西 3 10km以上 23 73 1013
18 22:00 西北西 4 10km以上 23 73 1013
18 21:00 西北西 3 10km以上 23 73 1013
18 20:00 北西 4 10km以上 23 73 1012
18 19:00 北西 5 10km以上 23 73 1011
18 18:00 北西 4 10km以上 25 69 1011
18 17:00 北西 4 10km以上 26 70 1011
18 16:00 北西 6 10km以上 27 62 1010
18 15:00 北西 6 10km以上 28 62 1010
18 14:00 北北西 5 10km以上 27 66 1010
18 13:00 北西 7 10km以上 27 70 1010
18 12:00 北西 8 10km以上 27 70 1010
18 11:00 西北西 8 10km以上 26 74 1010
18 10:00 西 7 10km以上 26 74 1010
18 09:00 西北西 6 10km以上 26 79 1010
18 08:00 西北西 6 10km以上 25 83 1009
18 07:00 西北西 4 10km以上 24 89 1009
RJFO 182200Z 32005KT 9999 FEW020 23/18 Q1013
RJFO 181300Z 29008KT 9999 FEW030 BKN050 23/18 Q1013
RJFO 181200Z 29006KT 250V330 9999 FEW030 SCT050 23/18 Q1013
RJFO 181100Z 31008KT 9999 FEW030 SCT080 23/18 Q1012
RJFO 181000Z 31009KT 9999 FEW030 23/18 Q1011
RJFO 180900Z 32008KT 9999 FEW030 25/19 Q1011
RJFO 180800Z 31008KT 270V330 9999 FEW020 SCT030 26/20 Q1011
RJFO 180700Z 32011KT 290V010 9999 FEW025 SCT030 27/19 Q1010
RJFO 180600Z 32011KT 9999 FEW025 SCT030 28/20 Q1010
RJFO 180500Z 33010KT 270V360 9999 FEW025 SCT030 27/20 Q1010
RJFO 180400Z 31013KT 270V350 9999 FEW020 SCT025 27/21 Q1010
RJFO 180300Z 31015KT 280V340 9999 FEW020 27/21 Q1010
RJFO 180200Z 30015KT 9999 FEW020 SCT080 26/21 Q1010
RJFO 180100Z 28014KT 250V320 9999 FEW020 SCT045 BKN080 26/21 Q1010
RJFO 180000Z 29011G21KT 260V320 9999 FEW020 SCT060 BKN070 26/22 Q1010
RJFO 172300Z 30011KT 270V340 9999 FEW015 SCT020 BKN070 25/22 Q1009
RJFO 172200Z 30008KT 9999 FEW015 SCT040 BKN070 24/22 Q1009